Powderly, Kentucky
Current Conditions -  °F | °C
As of 3:35 PM on Wednesday 26 Nov 2014 (Local Time) from K2I0 Reporting Station
Overcast Overcast  
Wind Chill: 44°   Ceiling: 8500
Heat Index: 46°   Visibility: 10mi
Dew Point: 26°   Wind: 5mph
Humidity: 45%   Direction: 170°S
Pressure: 30.01"   Gusts: NA
Location:  37.24°N, 87.16°W
Report Text: K2I0 262135Z AUTO 17004KT 10SM SCT070 OVC085 08/M04 A3001 RMK AO2 T00781036
Loading
Personal Weather Stations






























Interactive Weather Map New forecast layout! Learn more

10-Day Weather Forecast

Advertisements
Track Severe Weather on mobile